Time;durP1;ratioP1;P1;durP2;ratioP2;P2;SDS_P1;SDS_P2;PMS_P1;PMS_P2;Temp;Humidity;BMP_temperature;BMP_pressure;BME280_temperature;BME280_humidity;BME280_pressure;Samples;Min_cycle;Max_cycle;Signal;HPM_P1;HPM_P2
2022/06/12 00:02:07;;;;;;;4.18;3.47;;;;;;;23.04;56.26;100871.75;5046023;28;20491;-63
2022/06/12 00:04:34;;;;;;;3.72;3.30;;;;;;;23.03;56.16;100871.97;5046293;28;20798;-62
2022/06/12 00:07:01;;;;;;;4.43;3.47;;;;;;;23.04;56.16;100865.53;5046091;28;20444;-61
2022/06/12 00:09:28;;;;;;;5.80;3.80;;;;;;;23.00;56.28;100865.19;5044820;28;20933;-60
2022/06/12 00:11:55;;;;;;;5.65;3.70;;;;;;;23.00;56.35;100869.78;5047394;28;20828;-63
2022/06/12 00:14:22;;;;;;;3.70;3.30;;;;;;;22.97;56.20;100873.81;5047967;28;20554;-63
2022/06/12 00:16:52;;;;;;;3.83;3.28;;;;;;;22.95;56.13;100867.03;5044196;28;20413;-63
2022/06/12 00:19:21;;;;;;;5.93;3.73;;;;;;;22.94;56.11;100855.41;5043641;28;20431;-61
2022/06/12 00:21:48;;;;;;;5.47;3.47;;;;;;;22.96;56.31;100857.81;5047348;28;20512;-60
2022/06/12 00:24:18;;;;;;;5.40;3.42;;;;;;;22.95;56.23;100857.00;5047733;28;20511;-61
2022/06/12 00:26:48;;;;;;;5.72;3.70;;;;;;;22.93;56.07;100851.03;5042634;28;20416;-61
2022/06/12 00:29:19;;;;;;;4.28;3.25;;;;;;;22.90;55.87;100849.66;5041267;28;20515;-61
2022/06/12 00:31:49;;;;;;;5.05;3.83;;;;;;;22.90;55.78;100852.38;5046431;28;20475;-63
2022/06/12 00:34:19;;;;;;;5.85;3.75;;;;;;;22.89;56.06;100853.44;5048255;28;20437;-60
2022/06/12 00:36:48;;;;;;;6.43;3.70;;;;;;;22.88;56.07;100857.19;5041156;28;20418;-63
2022/06/12 00:39:16;;;;;;;4.00;3.60;;;;;;;22.88;56.08;100861.78;5046025;28;20453;-61
2022/06/12 00:41:45;;;;;;;4.07;3.65;;;;;;;22.86;56.15;100858.50;5044813;28;20419;-61
2022/06/12 00:44:15;;;;;;;4.05;3.70;;;;;;;22.85;56.17;100852.28;5046929;28;20513;-62
2022/06/12 00:46:47;;;;;;;5.30;3.60;;;;;;;22.84;55.88;100847.94;5047452;28;20512;-61
2022/06/12 00:49:20;;;;;;;4.20;3.70;;;;;;;22.83;56.07;100838.22;5043989;28;21011;-61
2022/06/12 00:51:53;;;;;;;5.97;4.10;;;;;;;22.83;55.92;100834.66;5044092;28;20511;-61
2022/06/12 00:54:20;;;;;;;4.97;4.10;;;;;;;22.81;56.18;100834.09;5046097;28;21041;-61
2022/06/12 00:56:52;;;;;;;4.57;4.13;;;;;;;22.80;56.39;100829.78;5046128;28;20929;-61
2022/06/12 00:59:32;;;;;;;6.13;4.38;;;;;;;22.80;56.32;100840.59;5046314;28;20478;-61
2022/06/12 01:02:00;;;;;;;6.95;4.80;;;;;;;22.79;56.36;100841.66;5043981;28;20420;-61
2022/06/12 01:07:17;;;;;;;5.05;4.43;;;;;;;22.78;56.17;100842.69;5044989;28;20417;-63
2022/06/12 01:09:48;;;;;;;5.10;4.47;;;;;;;22.77;56.23;100841.09;5045361;28;20989;-62
2022/06/12 01:12:19;;;;;;;5.70;4.65;;;;;;;22.77;56.12;100830.28;5043710;28;20422;-60
2022/06/12 01:14:50;;;;;;;5.15;4.40;;;;;;;22.76;56.30;100828.63;5045265;28;20424;-60
2022/06/12 01:17:18;;;;;;;6.40;4.80;;;;;;;22.75;56.33;100817.00;5046608;28;20507;-60
2022/06/12 01:19:51;;;;;;;5.35;4.85;;;;;;;22.75;56.16;100818.91;5044998;28;20922;-61
2022/06/12 01:23:46;;;;;;;7.80;5.10;;;;;;;22.75;55.92;100822.41;5052386;28;20413;-61
2022/06/12 01:26:40;;;;;;;6.65;5.68;;;;;;;22.74;56.10;100820.75;5039002;28;20494;-61
2022/06/12 01:29:15;;;;;;;6.88;5.45;;;;;;;22.73;56.39;100818.34;5042878;28;20433;-62
2022/06/12 01:31:53;;;;;;;7.25;5.32;;;;;;;22.74;56.37;100817.25;5044581;28;20410;-62
2022/06/12 01:34:38;;;;;;;7.60;5.22;;;;;;;22.74;56.05;100815.34;5038078;28;20405;-62
2022/06/12 01:37:15;;;;;;;5.90;5.20;;;;;;;22.74;56.18;100818.06;5027575;28;20858;-62
2022/06/12 01:39:48;;;;;;;8.82;5.75;;;;;;;22.74;56.39;100823.47;5033954;28;20453;-63
2022/06/12 01:42:24;;;;;;;7.00;5.72;;;;;;;22.73;56.37;100831.84;5046266;28;20877;-61
2022/06/12 01:45:06;;;;;;;6.88;5.95;;;;;;;22.75;56.49;100829.72;5026273;28;20419;-61
2022/06/12 01:47:41;;;;;;;7.05;5.43;;;;;;;22.76;56.49;100825.91;5031419;28;20402;-61
2022/06/12 01:50:13;;;;;;;7.82;6.28;;;;;;;22.76;56.09;100825.91;5026216;28;20506;-62
2022/06/12 01:52:51;;;;;;;6.00;5.47;;;;;;;22.76;56.38;100834.03;5039976;28;20560;-61
2022/06/12 01:55:26;;;;;;;7.00;5.80;;;;;;;22.77;56.09;100838.38;5042622;28;20508;-62
2022/06/12 01:58:02;;;;;;;6.28;5.47;;;;;;;22.77;56.49;100833.78;5043653;28;20433;-61
2022/06/12 02:03:06;;;;;;;7.82;5.93;;;;;;;22.76;56.42;100825.91;5102757;27;20740;-63
2022/06/12 02:05:39;;;;;;;8.13;6.15;;;;;;;22.75;56.22;100822.41;5086116;28;20948;-63
2022/06/12 02:08:14;;;;;;;7.03;5.95;;;;;;;22.75;56.25;100825.13;5086359;28;20497;-63
2022/06/12 02:10:45;;;;;;;6.33;5.77;;;;;;;22.72;56.15;100825.59;5086364;28;20410;-63
2022/06/12 02:13:19;;;;;;;6.53;5.90;;;;;;;22.73;56.30;100826.44;5085910;28;20410;-63
2022/06/12 02:15:52;;;;;;;7.20;6.05;;;;;;;22.74;56.49;100830.75;5086106;28;20425;-63
2022/06/12 02:18:27;;;;;;;6.55;5.60;;;;;;;22.72;56.52;100828.31;5085878;28;20463;-63
2022/06/12 02:20:59;;;;;;;7.85;5.70;;;;;;;22.74;56.44;100830.75;5086004;28;20465;-63
2022/06/12 02:23:31;;;;;;;7.13;5.90;;;;;;;22.73;56.47;100829.13;5086400;28;20425;-63
2022/06/12 02:26:01;;;;;;;6.87;6.17;;;;;;;22.72;56.38;100833.72;5086222;28;20492;-63
2022/06/12 02:28:35;;;;;;;7.38;6.13;;;;;;;22.73;56.65;100831.84;5085784;28;20508;-63
2022/06/12 02:31:06;;;;;;;8.13;5.75;;;;;;;22.74;56.49;100830.75;5085883;28;20460;-64
2022/06/12 02:33:40;;;;;;;6.22;5.63;;;;;;;22.75;56.21;100824.31;5085414;28;20453;-63
2022/06/12 02:36:11;;;;;;;6.55;5.82;;;;;;;22.72;56.54;100822.91;5074757;28;20815;-63
2022/06/12 02:38:43;;;;;;;10.95;5.95;;;;;;;22.74;56.26;100826.16;5086390;28;20505;-63
2022/06/12 02:41:15;;;;;;;7.70;5.70;;;;;;;22.72;56.62;100836.41;5085299;28;20505;-63
2022/06/12 02:43:44;;;;;;;7.03;6.00;;;;;;;22.72;56.38;100833.72;5077842;28;20457;-63
2022/06/12 02:46:15;;;;;;;6.45;5.80;;;;;;;22.72;56.16;100828.31;5085475;28;20497;-63
2022/06/12 02:48:44;;;;;;;7.65;5.55;;;;;;;22.74;56.31;100828.88;5085958;28;20469;-63
2022/06/12 02:51:17;;;;;;;6.35;5.75;;;;;;;22.71;56.29;100827.50;5081723;28;20489;-64
2022/06/12 02:54:00;;;;;;;6.18;5.57;;;;;;;22.71;56.46;100826.69;5085242;28;20502;-64
2022/06/12 02:56:36;;;;;;;6.38;5.40;;;;;;;22.73;56.02;100832.66;5085090;28;20516;-64
2022/06/12 02:59:13;;;;;;;6.00;5.50;;;;;;;22.74;56.21;100841.56;5085389;28;20414;-64
2022/06/12 03:01:52;;;;;;;7.10;5.38;;;;;;;22.74;56.16;100839.69;5083150;28;20510;-63
2022/06/12 03:04:24;;;;;;;7.53;5.78;;;;;;;22.76;55.97;100840.28;5083121;28;20498;-63
2022/06/12 03:06:52;;;;;;;6.90;5.63;;;;;;;22.75;56.05;100830.50;5085072;28;20901;-64
2022/06/12 03:09:19;;;;;;;5.68;5.13;;;;;;;22.75;55.89;100832.41;5081824;28;20448;-63
2022/06/12 03:11:48;;;;;;;6.63;5.68;;;;;;;22.75;55.97;100835.13;5084200;28;20494;-63
2022/06/12 03:14:20;;;;;;;7.38;5.45;;;;;;;22.73;55.88;100838.06;5069710;28;21576;-63
2022/06/12 03:16:48;;;;;;;6.18;5.57;;;;;;;22.73;55.91;100832.66;5070666;28;20427;-63
2022/06/12 03:19:19;;;;;;;6.57;5.57;;;;;;;22.75;55.74;100843.22;5071276;28;20419;-63
2022/06/12 03:22:05;;;;;;;7.20;5.70;;;;;;;22.75;55.90;100844.03;5070266;28;20936;-63
2022/06/12 03:25:02;;;;;;;6.88;5.75;;;;;;;22.76;55.67;100842.97;5068052;28;20866;-62
2022/06/12 03:27:44;;;;;;;6.05;5.45;;;;;;;22.76;55.93;100842.97;5070325;28;20506;-63
2022/06/12 03:30:19;;;;;;;7.05;5.45;;;;;;;22.78;55.51;100838.13;5070211;28;20916;-64
2022/06/12 03:32:58;;;;;;;6.07;5.47;;;;;;;22.79;55.80;100844.34;5070894;28;20418;-63
2022/06/12 03:35:35;;;;;;;5.85;5.25;;;;;;;22.76;55.92;100837.56;5070434;28;20950;-63
2022/06/12 03:38:11;;;;;;;6.70;5.40;;;;;;;22.79;55.72;100841.66;5070406;28;20509;-64
2022/06/12 03:40:48;;;;;;;6.22;5.32;;;;;;;22.81;55.57;100840.31;5070121;28;20422;-64
2022/06/12 03:43:24;;;;;;;6.03;5.43;;;;;;;22.84;55.41;100841.72;5070303;28;20514;-63
2022/06/12 03:46:00;;;;;;;5.90;5.40;;;;;;;22.86;55.37;100839.59;5069432;28;21012;-63
2022/06/12 03:48:31;;;;;;;7.03;5.70;;;;;;;22.87;55.30;100842.03;5070291;28;20426;-63
2022/06/12 03:51:10;;;;;;;6.20;5.60;;;;;;;22.90;55.57;100843.41;5069923;28;20935;-64
2022/06/12 03:53:45;;;;;;;6.88;5.47;;;;;;;22.91;55.50;100848.59;5068493;28;20533;-64
2022/06/12 03:59:15;;;;;;;5.88;5.30;;;;;;;22.97;55.20;100835.13;5070269;28;20788;-63
2022/06/12 04:01:44;;;;;;;6.78;5.50;;;;;;;23.00;55.28;100835.47;5065199;28;20565;-63
2022/06/12 04:04:13;;;;;;;7.35;5.25;;;;;;;23.04;55.05;100841.19;5065875;28;20419;-63
2022/06/12 04:06:41;;;;;;;6.05;5.45;;;;;;;23.07;55.34;100844.25;5065546;28;20493;-63
2022/06/12 04:09:15;;;;;;;7.38;6.20;;;;;;;23.10;54.97;100840.19;5068851;28;20965;-63
2022/06/12 04:11:42;;;;;;;7.05;5.78;;;;;;;23.16;54.78;100841.13;5065723;28;20498;-70
2022/06/12 04:14:18;;;;;;;6.82;5.57;;;;;;;23.24;54.80;100841.47;5064528;28;20454;-63
2022/06/12 04:16:48;;;;;;;6.90;6.10;;;;;;;23.34;54.90;100835.38;5064787;28;20940;-63
2022/06/12 04:19:19;;;;;;;6.88;6.18;;;;;;;23.40;54.42;100839.78;5065085;28;20510;-63
2022/06/12 04:21:51;;;;;;;7.32;6.43;;;;;;;23.51;54.49;100848.03;5065557;28;20467;-63
2022/06/12 04:24:25;;;;;;;6.95;6.20;;;;;;;23.59;54.13;100851.09;5063304;28;20449;-63
2022/06/12 04:26:57;;;;;;;8.10;6.82;;;;;;;23.67;54.02;100845.22;5066289;28;20472;-64
2022/06/12 04:29:28;;;;;;;6.97;6.30;;;;;;;23.70;54.01;100843.06;5066950;28;20421;-63
2022/06/12 04:31:59;;;;;;;6.85;6.18;;;;;;;23.76;53.82;100850.19;5066659;28;20427;-63
2022/06/12 04:34:28;;;;;;;7.75;6.18;;;;;;;23.81;53.69;100847.56;5064732;28;20420;-63
2022/06/12 04:36:57;;;;;;;6.82;6.22;;;;;;;23.83;53.72;100851.63;5063796;28;20450;-63
2022/06/12 04:39:29;;;;;;;7.65;6.30;;;;;;;23.86;53.40;100850.34;5067691;28;20561;-64
2022/06/12 04:41:57;;;;;;;9.63;6.60;;;;;;;23.91;53.44;100854.97;5065813;28;20560;-64
2022/06/12 04:44:24;;;;;;;8.05;6.80;;;;;;;23.97;53.28;100853.97;5066497;28;20889;-63
2022/06/12 04:46:54;;;;;;;6.75;6.15;;;;;;;23.99;53.28;100859.94;5063532;28;20487;-64
2022/06/12 04:49:24;;;;;;;7.80;6.97;;;;;;;24.03;53.13;100859.16;5063794;28;20442;-63
2022/06/12 04:51:53;;;;;;;7.13;6.53;;;;;;;24.08;53.27;100854.88;5066617;28;20912;-63
2022/06/12 04:54:21;;;;;;;7.82;7.03;;;;;;;24.12;52.90;100856.78;5065185;28;20867;-63
2022/06/12 04:56:51;;;;;;;7.50;6.72;;;;;;;24.16;53.17;100855.19;5066012;28;20449;-64
2022/06/12 04:59:19;;;;;;;7.60;6.90;;;;;;;24.19;53.12;100853.88;5064225;28;20529;-63
2022/06/12 05:01:47;;;;;;;8.13;7.43;;;;;;;24.22;52.89;100862.31;5067066;28;20840;-63
2022/06/12 05:04:16;;;;;;;7.78;6.75;;;;;;;24.24;52.97;100862.88;5066883;28;20418;-64
2022/06/12 05:06:44;;;;;;;7.60;7.00;;;;;;;24.26;53.17;100864.50;5061561;28;20944;-64
2022/06/12 05:09:13;;;;;;;8.25;7.28;;;;;;;24.24;52.94;100873.69;5065394;28;20414;-63
2022/06/12 05:11:41;;;;;;;8.23;7.22;;;;;;;24.35;52.63;100871.91;5065100;28;20845;-63
2022/06/12 05:14:09;;;;;;;9.35;7.00;;;;;;;24.42;53.04;100871.69;5065550;28;20797;-64
2022/06/12 05:16:38;;;;;;;8.65;7.40;;;;;;;24.47;53.08;100876.31;5063805;28;20411;-63
2022/06/12 05:19:08;;;;;;;8.80;6.93;;;;;;;24.57;52.84;100882.66;5063583;28;20418;-63
2022/06/12 05:21:35;;;;;;;7.55;6.75;;;;;;;24.67;52.96;100876.50;5063861;28;20929;-63
2022/06/12 05:24:03;;;;;;;7.65;6.93;;;;;;;24.82;52.70;100881.22;5065529;28;20415;-64
2022/06/12 05:26:33;;;;;;;7.55;6.70;;;;;;;24.96;52.56;100884.28;5065082;28;20484;-63
2022/06/12 05:29:01;;;;;;;7.68;6.88;;;;;;;25.05;52.01;100874.59;5064537;28;20426;-64
2022/06/12 05:31:29;;;;;;;7.80;6.70;;;;;;;25.19;51.78;100878.47;5063069;28;20490;-63
2022/06/12 05:33:56;;;;;;;8.05;6.88;;;;;;;25.22;51.49;100887.16;5062164;28;20410;-64
2022/06/12 05:36:24;;;;;;;7.63;6.88;;;;;;;25.31;51.53;100891.81;5064990;28;20415;-62
2022/06/12 05:38:52;;;;;;;10.35;9.25;;;;;;;25.41;51.12;100896.50;5064372;28;20415;-63
2022/06/12 05:41:20;;;;;;;8.98;7.43;;;;;;;25.54;50.84;100892.47;5059554;28;20418;-63
2022/06/12 05:43:47;;;;;;;9.80;7.22;;;;;;;25.74;50.91;100899.88;5062859;28;20441;-64
2022/06/12 05:46:16;;;;;;;7.65;6.88;;;;;;;26.28;49.66;100885.84;5065385;28;20505;-63
2022/06/12 05:48:45;;;;;;;8.10;7.10;;;;;;;26.71;48.97;100893.75;5062096;28;20415;-63
2022/06/12 05:51:14;;;;;;;7.18;6.45;;;;;;;26.94;48.36;100897.81;5064074;28;20506;-64
2022/06/12 05:53:41;;;;;;;7.10;6.15;;;;;;;27.23;47.53;100897.19;5065011;28;20443;-64
2022/06/12 05:56:10;;;;;;;6.30;5.70;;;;;;;27.47;46.55;100894.66;5063411;28;20828;-63
2022/06/12 05:58:38;;;;;;;8.35;6.60;;;;;;;27.82;45.82;100890.13;5063012;28;20451;-63
2022/06/12 06:01:06;;;;;;;7.13;6.07;;;;;;;28.43;45.06;100886.16;5066139;28;20498;-64
2022/06/12 06:03:34;;;;;;;7.35;5.50;;;;;;;29.07;43.77;100888.84;5065208;28;20423;-61
2022/06/12 06:06:03;;;;;;;9.45;5.22;;;;;;;29.64;42.57;100892.53;5064122;28;20481;-64
2022/06/12 06:08:32;;;;;;;8.02;5.60;;;;;;;29.87;41.26;100885.44;5062075;28;20936;-63
2022/06/12 06:10:59;;;;;;;6.82;5.95;;;;;;;30.05;41.22;100888.41;5067208;28;20506;-68
2022/06/12 06:13:26;;;;;;;6.20;5.55;;;;;;;30.14;41.01;100888.56;5067092;28;20464;-64
2022/06/12 06:15:53;;;;;;;7.90;6.10;;;;;;;30.05;40.97;100886.53;5068339;28;20454;-64
2022/06/12 06:18:21;;;;;;;9.35;5.63;;;;;;;29.94;40.73;100890.50;5067828;28;20414;-61
2022/06/12 06:20:48;;;;;;;6.80;5.72;;;;;;;29.87;40.73;100892.78;5067981;28;20506;-62
2022/06/12 06:23:16;;;;;;;5.82;5.32;;;;;;;29.68;41.14;100895.50;5067749;28;20513;-63
2022/06/12 06:25:43;;;;;;;7.63;5.72;;;;;;;29.47;41.46;100890.28;5068121;28;20423;-61
2022/06/12 06:28:12;;;;;;;6.18;5.57;;;;;;;29.28;41.81;100895.75;5067482;28;20514;-62
2022/06/12 06:30:39;;;;;;;9.38;6.28;;;;;;;29.04;42.15;100900.34;5066579;28;20983;-63
2022/06/12 06:33:08;;;;;;;6.13;5.53;;;;;;;28.93;42.48;100896.91;5067438;28;20838;-62
2022/06/12 06:35:35;;;;;;;6.75;5.65;;;;;;;28.80;42.79;100903.88;5067412;28;20900;-63
2022/06/12 06:38:02;;;;;;;6.38;5.75;;;;;;;28.52;43.13;100903.56;5067298;28;20419;-63
2022/06/12 06:40:32;;;;;;;6.35;5.10;;;;;;;28.46;43.10;100907.41;5065971;28;20486;-62
2022/06/12 06:42:59;;;;;;;7.65;5.10;;;;;;;28.34;42.94;100901.50;5065527;28;20601;-62
2022/06/12 06:48:12;;;;;;;7.18;5.43;;;;;;;28.02;44.00;100905.56;5068033;28;20418;-62
2022/06/12 06:50:40;;;;;;;6.20;5.05;;;;;;;27.82;44.64;100901.84;5072317;28;20411;-63
2022/06/12 06:53:09;;;;;;;7.37;5.40;;;;;;;27.78;44.81;100903.47;5066769;28;20507;-62
2022/06/12 06:55:37;;;;;;;6.32;5.68;;;;;;;27.73;45.05;100895.38;5058224;28;20483;-64
2022/06/12 06:58:09;;;;;;;8.30;5.50;;;;;;;27.68;45.42;100897.28;5054752;28;20489;-63
2022/06/12 07:00:38;;;;;;;5.97;5.35;;;;;;;27.51;45.49;100897.63;5060342;28;20533;-63
2022/06/12 07:03:05;;;;;;;5.95;5.00;;;;;;;27.44;45.61;100901.50;5066010;28;20458;-63
2022/06/12 07:05:32;;;;;;;7.38;5.18;;;;;;;27.41;45.60;100907.50;5064469;28;20451;-64
2022/06/12 07:08:00;;;;;;;7.85;5.40;;;;;;;27.50;45.62;100912.38;5063811;28;20424;-63
2022/06/12 07:10:30;;;;;;;7.03;5.40;;;;;;;27.57;45.73;100904.72;5052138;28;20503;-63
2022/06/12 07:12:59;;;;;;;5.30;4.80;;;;;;;27.65;45.65;100904.91;5059968;28;20412;-63
2022/06/12 07:15:28;;;;;;;5.28;4.85;;;;;;;27.58;46.11;100909.03;5060505;28;20801;-63
2022/06/12 07:17:56;;;;;;;6.22;4.95;;;;;;;27.62;45.86;100908.22;5063123;28;20450;-62
2022/06/12 07:20:27;;;;;;;5.82;4.78;;;;;;;27.71;45.59;100915.78;5061365;28;20415;-63
2022/06/12 07:22:53;;;;;;;7.68;5.18;;;;;;;27.71;45.90;100913.06;5067562;28;20514;-63
2022/06/12 07:25:21;;;;;;;6.10;4.80;;;;;;;27.68;45.69;100916.34;5060280;28;20419;-63
2022/06/12 07:27:48;;;;;;;6.47;5.00;;;;;;;27.69;45.69;100915.25;5055137;28;20427;-64
2022/06/12 07:30:20;;;;;;;5.50;4.88;;;;;;;27.72;45.97;100929.13;5066701;28;20513;-62
2022/06/12 07:32:48;;;;;;;6.22;4.93;;;;;;;27.79;45.56;100926.91;5062305;28;20530;-63
2022/06/12 07:35:15;;;;;;;6.35;5.30;;;;;;;27.94;45.69;100917.06;5059460;28;21014;-62
2022/06/12 07:37:42;;;;;;;6.22;4.90;;;;;;;28.08;45.39;100918.06;5066121;28;20454;-63
2022/06/12 07:40:16;;;;;;;6.90;4.82;;;;;;;28.16;45.51;100924.81;5063654;28;20423;-63
2022/06/12 07:42:43;;;;;;;6.32;4.80;;;;;;;28.32;45.22;100920.88;5066811;28;20438;-62
2022/06/12 07:45:11;;;;;;;5.53;4.78;;;;;;;28.52;44.78;100916.34;5066502;28;20415;-62
2022/06/12 07:47:39;;;;;;;6.23;4.43;;;;;;;28.64;44.80;100916.03;5066560;28;20498;-62
2022/06/12 07:50:08;;;;;;;4.72;4.32;;;;;;;28.81;44.33;100915.59;5066200;28;20918;-62
2022/06/12 07:52:35;;;;;;;5.47;4.47;;;;;;;29.04;43.98;100909.34;5062156;28;20460;-62
2022/06/12 07:55:02;;;;;;;6.17;4.60;;;;;;;29.21;43.08;100911.66;5056788;28;20503;-62
2022/06/12 07:57:29;;;;;;;7.93;5.28;;;;;;;29.35;42.86;100919.94;5064649;28;20419;-62
2022/06/12 07:59:56;;;;;;;5.90;4.28;;;;;;;29.45;41.76;100924.47;5065517;28;20866;-62
2022/06/12 08:02:23;;;;;;;6.10;4.07;;;;;;;29.51;41.09;100926.03;5064510;28;20427;-62
2022/06/12 08:04:51;;;;;;;7.07;3.93;;;;;;;29.33;40.70;100930.34;5067923;28;20427;-62
2022/06/12 08:07:18;;;;;;;5.27;3.90;;;;;;;29.36;40.72;100924.31;5055638;28;21107;-63
2022/06/12 08:09:45;;;;;;;6.40;4.20;;;;;;;29.44;41.36;100917.38;5064641;28;20502;-62
2022/06/12 08:12:12;;;;;;;5.72;3.97;;;;;;;29.56;40.71;100923.25;5064698;28;20420;-63
2022/06/12 08:14:39;;;;;;;10.68;4.85;;;;;;;29.72;40.92;100921.13;5062195;28;20498;-63
2022/06/12 08:17:07;;;;;;;28.13;8.65;;;;;;;29.80;40.42;100922.41;5061921;28;21022;-63
2022/06/12 08:22:20;;;;;;;8.90;4.40;;;;;;;29.97;40.22;100924.66;5059695;28;20927;-62
2022/06/12 08:24:47;;;;;;;7.78;3.83;;;;;;;30.05;39.82;100923.97;5058400;28;20481;-60
2022/06/12 08:27:15;;;;;;;5.20;3.70;;;;;;;30.13;39.25;100920.56;5061993;28;20877;-62
2022/06/12 08:29:43;;;;;;;9.90;4.10;;;;;;;30.17;39.42;100924.31;5059006;28;20521;-63
2022/06/12 08:32:15;;;;;;;5.47;3.50;;;;;;;30.22;39.45;100923.44;5067740;28;20415;-63
2022/06/12 08:34:45;;;;;;;8.90;4.25;;;;;;;30.34;39.08;100923.00;5064987;28;20438;-62
2022/06/12 08:37:16;;;;;;;5.53;3.63;;;;;;;30.38;39.00;100930.31;5066930;28;20505;-63
2022/06/12 08:39:45;;;;;;;6.77;3.60;;;;;;;30.35;38.35;100927.38;5064975;28;20422;-62
2022/06/12 08:42:17;;;;;;;4.75;3.70;;;;;;;29.98;38.44;100923.53;5064798;28;20494;-62
2022/06/12 08:44:51;;;;;;;5.18;3.90;;;;;;;30.07;38.98;100933.50;5062912;28;20482;-62
2022/06/12 08:47:25;;;;;;;4.57;3.67;;;;;;;30.18;38.98;100925.97;5065626;28;20491;-64
2022/06/12 08:50:00;;;;;;;7.10;3.55;;;;;;;30.20;38.30;100929.22;5064956;28;20509;-63
2022/06/12 08:52:32;;;;;;;4.80;3.30;;;;;;;30.21;37.98;100930.00;5065440;28;20454;-62
2022/06/12 08:55:07;;;;;;;5.00;3.35;;;;;;;30.21;38.07;100927.28;5064831;28;20414;-63
2022/06/12 08:57:41;;;;;;;5.43;3.80;;;;;;;30.24;39.00;100932.97;5062268;28;20419;-63
2022/06/12 09:00:12;;;;;;;8.27;3.70;;;;;;;30.20;39.25;100931.94;5062204;28;20493;-64
2022/06/12 09:02:43;;;;;;;3.53;3.22;;;;;;;30.24;38.69;100929.44;5062654;28;20454;-63
2022/06/12 09:05:13;;;;;;;4.00;3.47;;;;;;;30.25;38.87;100926.41;5062824;28;20920;-62
2022/06/12 09:07:47;;;;;;;4.00;3.40;;;;;;;30.31;38.77;100927.94;5066355;28;20501;-62
2022/06/12 09:10:24;;;;;;;4.97;3.30;;;;;;;30.36;38.83;100929.81;5065506;28;20584;-63
2022/06/12 09:12:55;;;;;;;5.37;3.40;;;;;;;30.32;38.59;100928.72;5064275;28;20404;-62
2022/06/12 09:15:29;;;;;;;3.67;3.17;;;;;;;30.36;38.54;100927.06;5060874;28;20418;-62
2022/06/12 09:18:06;;;;;;;4.05;3.30;;;;;;;30.37;38.39;100923.22;5064082;28;20509;-64
2022/06/12 09:20:41;;;;;;;4.83;3.30;;;;;;;30.35;38.77;100924.63;5064444;28;20426;-63
2022/06/12 09:23:16;;;;;;;4.15;3.30;;;;;;;30.42;38.07;100922.34;5066598;28;20530;-62
2022/06/12 09:25:52;;;;;;;4.07;3.20;;;;;;;30.40;38.05;100913.63;5060760;28;20491;-62
2022/06/12 09:28:32;;;;;;;7.13;3.10;;;;;;;30.43;38.43;100921.22;5059227;28;20420;-62
2022/06/12 09:31:06;;;;;;;4.68;3.40;;;;;;;30.47;37.50;100919.53;5065462;28;20426;-62
2022/06/12 09:33:43;;;;;;;3.75;2.92;;;;;;;30.52;37.68;100926.81;5068858;28;20423;-62
2022/06/12 09:36:28;;;;;;;4.53;3.17;;;;;;;30.53;37.92;100921.03;5068690;28;20446;-62
2022/06/12 09:39:05;;;;;;;3.90;3.33;;;;;;;30.43;36.63;100932.97;5062165;28;20502;-61
2022/06/12 09:41:44;;;;;;;4.32;3.00;;;;;;;30.28;36.02;100933.97;5068566;28;20497;-62
2022/06/12 09:44:16;;;;;;;4.28;2.90;;;;;;;30.20;36.49;100931.13;5064436;28;20904;-64
2022/06/12 09:47:00;;;;;;;3.75;2.80;;;;;;;30.13;37.30;100928.78;5066669;28;20871;-65
2022/06/12 09:49:33;;;;;;;3.10;2.78;;;;;;;30.17;37.59;100918.84;5063918;28;20434;-66
2022/06/12 09:52:18;;;;;;;2.90;2.70;;;;;;;29.98;36.71;100918.88;5065203;28;20546;-64
2022/06/12 09:54:51;;;;;;;4.85;2.83;;;;;;;30.00;37.03;100915.84;5058797;28;20487;-64
2022/06/12 09:57:30;;;;;;;3.00;2.70;;;;;;;29.96;36.77;100909.34;5058951;28;20415;-64
2022/06/12 10:00:03;;;;;;;3.05;2.75;;;;;;;29.97;36.10;100905.50;5067067;28;20502;-63
2022/06/12 10:02:36;;;;;;;3.27;2.93;;;;;;;30.09;35.83;100903.16;5064232;28;20426;-65
2022/06/12 10:05:11;;;;;;;2.97;2.67;;;;;;;30.10;36.54;100899.28;5065221;28;20426;-64
2022/06/12 10:07:46;;;;;;;3.20;2.83;;;;;;;30.20;36.88;100901.88;5059926;28;20511;-63
2022/06/12 10:10:23;;;;;;;3.50;2.60;;;;;;;30.08;36.32;100898.78;5058055;28;20488;-62
2022/06/12 10:12:58;;;;;;;3.85;3.15;;;;;;;30.16;36.87;100906.31;5064977;28;20459;-64
2022/06/12 10:15:31;;;;;;;3.80;2.60;;;;;;;30.26;36.74;100891.66;5066624;28;20415;-64
2022/06/12 10:18:06;;;;;;;3.45;2.70;;;;;;;30.33;36.33;100888.53;5058097;28;20420;-64
2022/06/12 10:20:38;;;;;;;4.03;2.60;;;;;;;30.38;36.59;100881.09;5062392;28;20427;-64
2022/06/12 10:23:06;;;;;;;3.92;3.30;;;;;;;30.44;37.65;100879.09;5063684;28;20983;-65
2022/06/12 10:25:35;;;;;;;3.10;2.80;;;;;;;30.48;37.59;100878.16;5067380;28;20990;-64
2022/06/12 10:28:07;;;;;;;4.78;3.00;;;;;;;30.52;37.96;100872.91;5066734;28;20415;-66
2022/06/12 10:30:39;;;;;;;3.67;3.03;;;;;;;30.59;38.27;100875.25;5067589;28;20516;-64
2022/06/12 10:33:19;;;;;;;4.50;3.15;;;;;;;30.65;37.64;100871.34;5067135;28;20418;-64
2022/06/12 10:35:49;;;;;;;5.28;4.78;;;;;;;30.69;37.33;100862.19;5067007;28;20418;-64
2022/06/12 10:38:16;;;;;;;3.53;3.00;;;;;;;30.73;37.78;100859.66;5069204;28;20894;-63
2022/06/12 10:40:50;;;;;;;3.97;2.80;;;;;;;30.72;37.36;100858.06;5067123;28;20422;-62
2022/06/12 10:43:28;;;;;;;3.85;2.83;;;;;;;30.71;36.69;100859.16;5066115;28;20423;-64
2022/06/12 10:46:02;;;;;;;3.40;3.03;;;;;;;30.75;37.17;100862.91;5065562;28;20438;-63
2022/06/12 10:48:32;;;;;;;4.07;3.10;;;;;;;30.78;37.06;100864.25;5062772;28;20991;-64
2022/06/12 10:51:02;;;;;;;3.00;2.80;;;;;;;30.64;36.68;100864.22;5069098;28;20439;-64
2022/06/12 10:53:30;;;;;;;3.65;2.33;;;;;;;30.54;36.92;100861.66;5064866;28;20502;-66
2022/06/12 10:56:08;;;;;;;2.78;2.45;;;;;;;30.47;36.80;100859.34;5063513;28;20493;-67
2022/06/12 10:59:09;;;;;;;3.22;2.60;;;;;;;30.46;36.74;100861.25;5062012;28;20449;-65
2022/06/12 11:01:44;;;;;;;4.10;2.20;;;;;;;30.44;35.88;100859.94;5062988;28;20418;-62
2022/06/12 11:04:25;;;;;;;2.20;2.00;;;;;;;30.38;36.71;100861.94;5071168;28;20427;-64
2022/06/12 11:07:03;;;;;;;2.47;2.10;;;;;;;30.37;37.51;100854.84;5057095;28;20446;-65
2022/06/12 11:09:49;;;;;;;3.22;2.53;;;;;;;30.36;37.64;100860.59;5066564;28;21201;-65
2022/06/12 11:12:34;;;;;;;2.70;2.35;;;;;;;30.33;38.44;100862.00;5067533;28;20414;-64
2022/06/12 11:15:19;;;;;;;4.22;2.28;;;;;;;30.30;38.61;100860.66;5065025;28;20801;-64
2022/06/12 11:17:59;;;;;;;5.00;2.28;;;;;;;30.30;37.80;100857.13;5059152;28;20512;-64
2022/06/12 11:20:38;;;;;;;5.33;2.90;;;;;;;30.27;37.32;100850.34;5062677;28;20424;-63
2022/06/12 11:23:19;;;;;;;2.72;2.40;;;;;;;30.28;37.15;100848.41;5066392;28;20462;-64
2022/06/12 11:26:07;;;;;;;2.90;2.58;;;;;;;30.27;37.53;100841.31;5064943;28;20459;-64
2022/06/12 11:28:50;;;;;;;4.35;2.42;;;;;;;30.27;37.55;100836.66;5064221;28;20458;-64
2022/06/12 11:31:37;;;;;;;5.03;2.63;;;;;;;30.30;37.58;100837.97;5071161;28;20962;-63
2022/06/12 11:34:16;;;;;;;7.28;2.25;;;;;;;30.32;36.55;100841.22;5061339;28;20919;-64
2022/06/12 11:36:54;;;;;;;3.10;2.00;;;;;;;30.28;36.55;100840.22;5067102;28;20539;-64
2022/06/12 11:39:40;;;;;;;6.50;3.25;;;;;;;30.27;36.01;100838.56;5068025;28;20414;-64
2022/06/12 11:42:25;;;;;;;5.22;2.85;;;;;;;30.25;36.05;100836.16;5062264;28;20415;-64
2022/06/12 11:45:09;;;;;;;2.50;2.30;;;;;;;30.34;35.90;100825.34;5062973;28;20956;-64
2022/06/12 11:48:04;;;;;;;3.28;2.38;;;;;;;30.41;35.91;100822.22;5064263;28;20419;-62
2022/06/12 11:50:37;;;;;;;3.55;2.15;;;;;;;30.47;35.80;100816.38;5064071;28;20417;-64
2022/06/12 11:53:22;;;;;;;3.05;2.17;;;;;;;30.56;35.77;100812.91;5064906;28;20423;-64
2022/06/12 11:55:56;;;;;;;6.53;3.37;;;;;;;30.57;36.08;100811.81;5066397;28;20887;-64
2022/06/12 11:58:42;;;;;;;2.67;2.10;;;;;;;30.61;35.52;100821.88;5065211;28;20958;-64
2022/06/12 12:01:20;;;;;;;7.07;3.40;;;;;;;30.64;36.16;100817.72;5063940;28;20415;-64
2022/06/12 12:04:18;;;;;;;5.85;4.25;;;;;;;30.54;37.23;100815.16;5067196;28;20531;-64